Time;durP1;ratioP1;P1;durP2;ratioP2;P2;SDS_P1;SDS_P2;PMS_P1;PMS_P2;Temp;Humidity;BMP_temperature;BMP_pressure;BME280_temperature;BME280_humidity;BME280_pressure;Samples;Min_cycle;Max_cycle;Signal;HPM_P1;HPM_P2
2024/01/18 00:00:40;;;;;;;0.20;0.20;;;;;;;;;;5039368;28;20261;-76
2024/01/18 00:03:06;;;;;;;0.20;0.20;;;;;;;;;;5058742;28;20227;-76
2024/01/18 00:05:33;;;;;;;0.20;0.20;;;;;;;;;;5038775;28;20246;-76
2024/01/18 00:07:59;;;;;;;0.23;0.23;;;;;;;;;;5058610;28;20242;-76
2024/01/18 00:10:28;;;;;;;0.20;0.20;;;;;;;;;;5038401;28;20214;-76
2024/01/18 00:12:54;;;;;;;0.23;0.23;;;;;;;;;;5059115;28;20268;-76
2024/01/18 00:15:21;;;;;;;0.30;0.30;;;;;;;;;;5037225;28;20250;-76
2024/01/18 00:17:47;;;;;;;0.20;0.20;;;;;;;;;;5059792;28;20196;-76
2024/01/18 00:20:14;;;;;;;0.30;0.30;;;;;;;;;;5036702;28;20207;-76
2024/01/18 00:22:40;;;;;;;0.20;0.20;;;;;;;;;;5060548;28;20196;-76
2024/01/18 00:25:08;;;;;;;2.53;2.43;;;;;;;;;;5046188;28;20455;-75
2024/01/18 00:27:35;;;;;;;0.20;0.20;;;;;;;;;;5034380;28;20216;-75
2024/01/18 00:30:02;;;;;;;0.20;0.20;;;;;;;;;;5045784;28;20406;-76
2024/01/18 00:32:28;;;;;;;0.30;0.30;;;;;;;;;;5051156;28;20246;-76
2024/01/18 00:34:55;;;;;;;1.07;1.07;;;;;;;;;;5046008;28;20203;-76
2024/01/18 00:37:21;;;;;;;0.97;0.97;;;;;;;;;;5051305;28;20446;-76
2024/01/18 00:39:48;;;;;;;0.30;0.30;;;;;;;;;;5045880;28;20198;-76
2024/01/18 00:42:14;;;;;;;0.20;0.20;;;;;;;;;;5051120;28;20250;-76
2024/01/18 00:44:42;;;;;;;0.20;0.20;;;;;;;;;;5045333;28;20231;-76
2024/01/18 00:47:08;;;;;;;0.20;0.20;;;;;;;;;;5050928;28;20241;-76
2024/01/18 00:49:35;;;;;;;0.30;0.30;;;;;;;;;;5045446;28;20533;-76
2024/01/18 00:52:02;;;;;;;0.40;0.40;;;;;;;;;;5049931;28;20434;-76
2024/01/18 00:54:28;;;;;;;0.30;0.30;;;;;;;;;;5045889;28;20240;-76
2024/01/18 00:56:55;;;;;;;0.20;0.20;;;;;;;;;;5049179;28;20422;-76
2024/01/18 00:59:21;;;;;;;0.27;0.27;;;;;;;;;;5047078;28;20205;-76
2024/01/18 01:01:49;;;;;;;0.27;0.27;;;;;;;;;;5048000;28;20309;-76
2024/01/18 01:04:16;;;;;;;0.20;0.20;;;;;;;;;;5047498;28;20208;-76
2024/01/18 01:06:42;;;;;;;0.20;0.20;;;;;;;;;;5046390;28;20497;-76
2024/01/18 01:09:09;;;;;;;0.30;0.30;;;;;;;;;;5048491;28;20211;-76
2024/01/18 01:11:35;;;;;;;0.53;0.53;;;;;;;;;;5046094;28;20560;-76
2024/01/18 01:14:02;;;;;;;0.20;0.20;;;;;;;;;;5049164;28;20204;-76
2024/01/18 01:16:29;;;;;;;0.20;0.20;;;;;;;;;;5045386;28;20241;-75
2024/01/18 01:18:56;;;;;;;0.20;0.20;;;;;;;;;;5049845;28;20234;-76
2024/01/18 01:21:23;;;;;;;0.20;0.20;;;;;;;;;;5044310;28;20268;-75
2024/01/18 01:23:51;;;;;;;0.20;0.20;;;;;;;;;;5050604;28;20276;-76
2024/01/18 01:26:18;;;;;;;0.20;0.20;;;;;;;;;;5043389;28;20253;-76
2024/01/18 01:28:45;;;;;;;0.20;0.20;;;;;;;;;;5050976;28;20228;-76
2024/01/18 01:31:11;;;;;;;0.23;0.23;;;;;;;;;;5042598;28;20270;-76
2024/01/18 01:33:37;;;;;;;0.30;0.30;;;;;;;;;;5051930;28;20273;-76
2024/01/18 01:36:06;;;;;;;0.30;0.30;;;;;;;;;;5041739;28;20297;-76
2024/01/18 01:38:33;;;;;;;0.20;0.20;;;;;;;;;;5052650;28;20218;-76
2024/01/18 01:40:59;;;;;;;0.30;0.30;;;;;;;;;;5041128;28;20608;-76
2024/01/18 01:43:26;;;;;;;0.20;0.20;;;;;;;;;;5053084;28;20204;-76
2024/01/18 01:45:52;;;;;;;0.20;0.20;;;;;;;;;;5039865;28;20326;-76
2024/01/18 01:48:19;;;;;;;0.20;0.20;;;;;;;;;;5054049;28;20237;-76
2024/01/18 01:50:46;;;;;;;0.30;0.30;;;;;;;;;;5038934;28;20238;-76
2024/01/18 01:53:14;;;;;;;0.30;0.30;;;;;;;;;;5054921;28;20535;-76
2024/01/18 01:55:42;;;;;;;0.20;0.20;;;;;;;;;;5038625;28;20265;-76
2024/01/18 01:58:09;;;;;;;0.20;0.20;;;;;;;;;;5055257;28;20250;-76
2024/01/18 02:00:36;;;;;;;0.30;0.30;;;;;;;;;;5037977;28;20447;-76
2024/01/18 02:03:02;;;;;;;0.27;0.27;;;;;;;;;;5055902;28;20240;-76
2024/01/18 02:05:29;;;;;;;0.30;0.30;;;;;;;;;;5036516;28;20300;-76
2024/01/18 02:07:55;;;;;;;0.40;0.40;;;;;;;;;;5056697;28;20210;-75
2024/01/18 02:10:23;;;;;;;0.30;0.30;;;;;;;;;;5035872;28;20513;-76
2024/01/18 02:12:51;;;;;;;0.20;0.20;;;;;;;;;;5057790;28;20202;-76
2024/01/18 02:15:17;;;;;;;7.17;6.70;;;;;;;;;;5035209;28;20222;-76
2024/01/18 02:17:44;;;;;;;0.30;0.30;;;;;;;;;;5058387;28;20223;-76
2024/01/18 02:20:11;;;;;;;0.30;0.30;;;;;;;;;;5034254;28;20240;-76
2024/01/18 02:22:40;;;;;;;0.20;0.20;;;;;;;;;;5058754;28;20206;-75
2024/01/18 02:25:15;;;;;;;0.20;0.20;;;;;;;;;;5043832;28;20224;-76
2024/01/18 02:27:41;;;;;;;0.20;0.20;;;;;;;;;;5037710;28;20276;-76
2024/01/18 02:30:08;;;;;;;0.27;0.27;;;;;;;;;;5043985;28;20203;-75
2024/01/18 02:32:35;;;;;;;0.30;0.30;;;;;;;;;;5032285;28;20233;-76
2024/01/18 02:35:01;;;;;;;0.20;0.20;;;;;;;;;;5043320;28;20206;-76
2024/01/18 02:37:28;;;;;;;0.20;0.20;;;;;;;;;;5048994;28;20246;-76
2024/01/18 02:39:54;;;;;;;0.23;0.23;;;;;;;;;;5043856;28;20267;-76
2024/01/18 02:42:22;;;;;;;0.20;0.20;;;;;;;;;;5049035;28;20258;-76
2024/01/18 02:44:48;;;;;;;0.27;0.27;;;;;;;;;;5043384;28;20234;-75
2024/01/18 02:47:15;;;;;;;0.20;0.20;;;;;;;;;;5049034;28;20260;-76
2024/01/18 02:49:41;;;;;;;0.30;0.30;;;;;;;;;;5043747;28;20237;-76
2024/01/18 02:52:07;;;;;;;0.30;0.30;;;;;;;;;;5048780;28;20266;-76
2024/01/18 02:54:34;;;;;;;0.20;0.20;;;;;;;;;;5043588;28;20227;-76
2024/01/18 02:57:00;;;;;;;0.27;0.27;;;;;;;;;;5047878;28;20254;-76
2024/01/18 02:59:28;;;;;;;2.53;2.43;;;;;;;;;;5044396;28;20238;-76
2024/01/18 03:01:54;;;;;;;0.20;0.20;;;;;;;;;;5047008;28;20265;-76
2024/01/18 03:04:21;;;;;;;0.30;0.30;;;;;;;;;;5045009;28;20263;-76
2024/01/18 03:06:47;;;;;;;1.10;1.10;;;;;;;;;;5045911;28;20314;-76
2024/01/18 03:09:14;;;;;;;0.23;0.23;;;;;;;;;;5045756;28;20207;-75
2024/01/18 03:11:40;;;;;;;0.30;0.30;;;;;;;;;;5044998;28;20248;-76
2024/01/18 03:14:07;;;;;;;0.23;0.23;;;;;;;;;;5046842;28;20213;-75
2024/01/18 03:16:36;;;;;;;0.40;0.40;;;;;;;;;;5043921;28;20629;-75
2024/01/18 03:19:02;;;;;;;0.30;0.30;;;;;;;;;;5047627;28;20402;-75
2024/01/18 03:21:29;;;;;;;0.20;0.20;;;;;;;;;;5043330;28;20309;-76
2024/01/18 03:23:55;;;;;;;0.30;0.30;;;;;;;;;;5048064;28;20274;-76
2024/01/18 03:26:21;;;;;;;0.30;0.30;;;;;;;;;;5042347;28;20249;-76
2024/01/18 03:28:48;;;;;;;0.20;0.20;;;;;;;;;;5049911;28;20269;-76
2024/01/18 03:31:14;;;;;;;0.30;0.30;;;;;;;;;;5045563;28;20249;-75
2024/01/18 03:33:42;;;;;;;0.30;0.30;;;;;;;;;;5053904;28;20228;-76
2024/01/18 03:36:09;;;;;;;0.27;0.27;;;;;;;;;;5044319;28;20299;-76
2024/01/18 03:38:35;;;;;;;0.30;0.30;;;;;;;;;;5054726;28;20508;-76
2024/01/18 03:41:02;;;;;;;0.30;0.30;;;;;;;;;;5043599;28;20267;-76
2024/01/18 03:43:28;;;;;;;0.30;0.30;;;;;;;;;;5055209;28;20267;-76
2024/01/18 03:45:55;;;;;;;0.30;0.30;;;;;;;;;;5042364;28;20438;-76
2024/01/18 03:48:21;;;;;;;0.20;0.20;;;;;;;;;;5056258;28;20430;-76
2024/01/18 03:50:49;;;;;;;0.30;0.30;;;;;;;;;;5041521;28;20266;-76
2024/01/18 03:53:16;;;;;;;0.27;0.27;;;;;;;;;;5056975;28;20378;-75
2024/01/18 03:55:43;;;;;;;0.30;0.30;;;;;;;;;;5041190;28;20240;-76
2024/01/18 03:58:09;;;;;;;0.30;0.30;;;;;;;;;;5057523;28;20207;-76
2024/01/18 04:00:38;;;;;;;0.30;0.30;;;;;;;;;;5039729;28;20464;-75
2024/01/18 04:03:05;;;;;;;0.30;0.30;;;;;;;;;;5057862;28;20253;-76
2024/01/18 04:05:31;;;;;;;0.23;0.23;;;;;;;;;;5038881;28;20552;-76
2024/01/18 04:07:59;;;;;;;0.30;0.30;;;;;;;;;;5058756;28;20187;-75
2024/01/18 04:10:25;;;;;;;0.27;0.27;;;;;;;;;;5038647;28;20222;-76
2024/01/18 04:12:52;;;;;;;0.20;0.20;;;;;;;;;;5059361;28;20227;-76
2024/01/18 04:15:18;;;;;;;0.30;0.30;;;;;;;;;;5037613;28;20201;-76
2024/01/18 04:17:45;;;;;;;0.30;0.30;;;;;;;;;;5060425;28;20254;-76
2024/01/18 04:20:15;;;;;;;0.20;0.20;;;;;;;;;;5036637;28;20238;-76
2024/01/18 04:22:41;;;;;;;0.30;0.30;;;;;;;;;;5060826;28;20199;-75
2024/01/18 04:25:09;;;;;;;0.30;0.30;;;;;;;;;;5046078;28;20253;-76
2024/01/18 04:27:36;;;;;;;0.23;0.23;;;;;;;;;;5034591;28;20225;-76
2024/01/18 04:30:02;;;;;;;0.20;0.20;;;;;;;;;;5046026;28;20210;-76
2024/01/18 04:32:29;;;;;;;0.30;0.30;;;;;;;;;;5051274;28;20251;-76
2024/01/18 04:34:55;;;;;;;0.30;0.30;;;;;;;;;;5045857;28;20214;-76
2024/01/18 04:37:22;;;;;;;0.30;0.30;;;;;;;;;;5051210;28;20254;-75
2024/01/18 04:39:48;;;;;;;0.30;0.30;;;;;;;;;;5045570;28;20234;-76
2024/01/18 04:42:16;;;;;;;0.30;0.30;;;;;;;;;;5050448;28;20445;-75
2024/01/18 04:44:42;;;;;;;0.30;0.30;;;;;;;;;;5045695;28;20219;-76
2024/01/18 04:47:09;;;;;;;0.30;0.30;;;;;;;;;;5051032;28;20254;-75
2024/01/18 04:49:35;;;;;;;0.30;0.30;;;;;;;;;;5045651;28;20489;-76
2024/01/18 04:52:02;;;;;;;0.20;0.20;;;;;;;;;;5049825;28;20243;-76
2024/01/18 04:54:28;;;;;;;0.20;0.20;;;;;;;;;;5046552;28;20271;-76
2024/01/18 04:56:55;;;;;;;0.30;0.30;;;;;;;;;;5049092;28;20242;-76
2024/01/18 04:59:22;;;;;;;0.20;0.20;;;;;;;;;;5046949;28;20202;-76
2024/01/18 05:01:49;;;;;;;0.30;0.30;;;;;;;;;;5048150;28;20309;-75
2024/01/18 05:04:15;;;;;;;0.30;0.30;;;;;;;;;;5047729;28;20237;-76
2024/01/18 05:06:41;;;;;;;0.47;0.47;;;;;;;;;;5046447;28;20318;-76
2024/01/18 05:09:09;;;;;;;1.23;1.23;;;;;;;;;;5049303;28;20212;-76
2024/01/18 05:11:36;;;;;;;0.50;0.50;;;;;;;;;;5046167;28;20321;-76
2024/01/18 05:14:02;;;;;;;0.30;0.30;;;;;;;;;;5049061;28;20276;-76
2024/01/18 05:16:32;;;;;;;0.30;0.30;;;;;;;;;;5045176;28;20304;-76
2024/01/18 05:18:59;;;;;;;0.20;0.20;;;;;;;;;;5050038;28;20212;-76
2024/01/18 05:21:25;;;;;;;0.20;0.20;;;;;;;;;;5044483;28;20323;-76
2024/01/18 05:23:51;;;;;;;0.30;0.30;;;;;;;;;;5050761;28;20274;-75
2024/01/18 05:26:18;;;;;;;0.30;0.30;;;;;;;;;;5043582;28;20249;-75
2024/01/18 05:28:44;;;;;;;0.23;0.23;;;;;;;;;;5051213;28;20215;-76
2024/01/18 05:31:11;;;;;;;0.20;0.20;;;;;;;;;;5042605;28;20312;-76
2024/01/18 05:33:38;;;;;;;0.30;0.30;;;;;;;;;;5052105;28;20229;-75
2024/01/18 05:36:05;;;;;;;0.30;0.30;;;;;;;;;;5041870;28;20295;-76
2024/01/18 05:38:33;;;;;;;0.27;0.27;;;;;;;;;;5052526;28;20210;-76
2024/01/18 05:40:59;;;;;;;0.30;0.30;;;;;;;;;;5040973;28;20244;-75
2024/01/18 05:43:25;;;;;;;0.20;0.20;;;;;;;;;;5053313;28;20206;-76
2024/01/18 05:45:52;;;;;;;0.30;0.30;;;;;;;;;;5039787;28;20242;-76
2024/01/18 05:48:18;;;;;;;0.23;0.23;;;;;;;;;;5054125;28;20275;-76
2024/01/18 05:50:46;;;;;;;0.30;0.30;;;;;;;;;;5039229;28;20256;-76
2024/01/18 05:53:13;;;;;;;0.30;0.30;;;;;;;;;;5054817;28;20253;-75
2024/01/18 05:55:39;;;;;;;0.30;0.30;;;;;;;;;;5038496;28;20319;-76
2024/01/18 05:58:05;;;;;;;0.50;0.50;;;;;;;;;;5055876;28;20239;-74
2024/01/18 06:00:32;;;;;;;0.30;0.30;;;;;;;;;;5036768;28;20245;-76
2024/01/18 06:02:58;;;;;;;0.30;0.30;;;;;;;;;;5057010;28;20201;-76
2024/01/18 06:05:26;;;;;;;0.30;0.30;;;;;;;;;;5035655;28;20560;-76
2024/01/18 06:07:54;;;;;;;0.30;0.30;;;;;;;;;;5057152;28;20245;-76
2024/01/18 06:10:20;;;;;;;0.20;0.20;;;;;;;;;;5035698;28;20208;-75
2024/01/18 06:12:47;;;;;;;0.30;0.30;;;;;;;;;;5057957;28;20194;-76
2024/01/18 06:15:13;;;;;;;0.23;0.23;;;;;;;;;;5034692;28;20240;-76
2024/01/18 06:17:40;;;;;;;0.23;0.23;;;;;;;;;;5058858;28;20199;-76
2024/01/18 06:20:07;;;;;;;0.30;0.30;;;;;;;;;;5043828;28;20204;-76
2024/01/18 06:22:33;;;;;;;0.30;0.30;;;;;;;;;;5049108;28;20250;-76
2024/01/18 06:25:01;;;;;;;0.30;0.30;;;;;;;;;;5044153;28;20476;-76
2024/01/18 06:27:28;;;;;;;0.20;0.20;;;;;;;;;;5049122;28;20299;-76
2024/01/18 06:29:54;;;;;;;0.37;0.37;;;;;;;;;;5043566;28;20245;-76
2024/01/18 06:32:20;;;;;;;1.90;1.90;;;;;;;;;;5048990;28;20248;-76
2024/01/18 06:34:47;;;;;;;0.30;0.30;;;;;;;;;;5043962;28;20234;-76
2024/01/18 06:37:13;;;;;;;0.23;0.23;;;;;;;;;;5049172;28;20307;-76
2024/01/18 06:39:39;;;;;;;0.30;0.30;;;;;;;;;;5043849;28;20215;-76
2024/01/18 06:42:08;;;;;;;0.30;0.30;;;;;;;;;;5048620;28;20311;-75
2024/01/18 06:44:35;;;;;;;0.30;0.30;;;;;;;;;;5043931;28;20218;-76
2024/01/18 06:47:01;;;;;;;0.30;0.30;;;;;;;;;;5047960;28;20242;-76
2024/01/18 06:49:28;;;;;;;0.83;0.83;;;;;;;;;;5044546;28;20202;-76
2024/01/18 06:51:54;;;;;;;0.30;0.30;;;;;;;;;;5046798;28;20297;-76
2024/01/18 06:54:21;;;;;;;6.80;6.33;;;;;;;;;;5045280;28;20235;-75
2024/01/18 06:56:48;;;;;;;2.43;2.30;;;;;;;;;;5046316;28;20310;-75
2024/01/18 06:59:16;;;;;;;0.30;0.30;;;;;;;;;;5046135;28;20208;-76
2024/01/18 07:01:42;;;;;;;0.30;0.30;;;;;;;;;;5045358;28;20242;-76
2024/01/18 07:04:09;;;;;;;0.30;0.30;;;;;;;;;;5048048;28;20206;-76
2024/01/18 07:06:35;;;;;;;0.30;0.30;;;;;;;;;;5048247;28;20258;-76
2024/01/18 07:09:01;;;;;;;0.30;0.30;;;;;;;;;;5051674;28;20528;-76
2024/01/18 07:11:28;;;;;;;0.30;0.30;;;;;;;;;;5047470;28;20534;-75
2024/01/18 07:13:54;;;;;;;0.30;0.30;;;;;;;;;;5052563;28;20196;-76
2024/01/18 07:16:22;;;;;;;0.30;0.30;;;;;;;;;;5046296;28;20303;-76
2024/01/18 07:18:49;;;;;;;0.30;0.30;;;;;;;;;;5053350;28;20552;-75
2024/01/18 07:21:15;;;;;;;0.20;0.20;;;;;;;;;;5045637;28;20242;-76
2024/01/18 07:23:42;;;;;;;0.30;0.30;;;;;;;;;;5053956;28;20199;-76
2024/01/18 07:26:08;;;;;;;0.30;0.30;;;;;;;;;;5044722;28;20274;-75
2024/01/18 07:28:35;;;;;;;0.20;0.20;;;;;;;;;;5054829;28;20230;-76
2024/01/18 07:31:02;;;;;;;0.30;0.30;;;;;;;;;;5043819;28;20285;-76
2024/01/18 07:33:30;;;;;;;0.30;0.30;;;;;;;;;;5055564;28;20472;-76
2024/01/18 07:35:57;;;;;;;0.30;0.30;;;;;;;;;;5042754;28;20252;-76
2024/01/18 07:38:24;;;;;;;0.40;0.40;;;;;;;;;;5055943;28;20259;-76
2024/01/18 07:40:50;;;;;;;0.30;0.30;;;;;;;;;;5041891;28;20250;-75
2024/01/18 07:43:17;;;;;;;0.20;0.20;;;;;;;;;;5056702;28;20204;-76
2024/01/18 07:45:44;;;;;;;0.50;0.50;;;;;;;;;;5041338;28;20258;-76
2024/01/18 07:48:11;;;;;;;0.30;0.30;;;;;;;;;;5057274;28;20235;-75
2024/01/18 07:50:38;;;;;;;0.20;0.20;;;;;;;;;;5040422;28;20269;-76
2024/01/18 07:53:05;;;;;;;0.30;0.30;;;;;;;;;;5058445;28;20253;-76
2024/01/18 07:55:32;;;;;;;0.30;0.30;;;;;;;;;;5039617;28;20273;-76
2024/01/18 07:57:58;;;;;;;0.30;0.30;;;;;;;;;;5059084;28;20193;-76
2024/01/18 08:00:25;;;;;;;0.30;0.30;;;;;;;;;;5038816;28;20240;-76
2024/01/18 08:02:51;;;;;;;0.20;0.20;;;;;;;;;;5059838;28;20438;-76
2024/01/18 08:05:18;;;;;;;0.30;0.30;;;;;;;;;;5037287;28;20251;-75
2024/01/18 08:07:45;;;;;;;2.23;2.10;;;;;;;;;;5060556;28;20225;-75
2024/01/18 08:10:12;;;;;;;0.30;0.30;;;;;;;;;;5037066;28;20209;-76
2024/01/18 08:12:38;;;;;;;0.30;0.30;;;;;;;;;;5061198;28;20193;-76
2024/01/18 08:15:05;;;;;;;0.30;0.30;;;;;;;;;;5046374;28;20447;-76
2024/01/18 08:17:31;;;;;;;0.23;0.23;;;;;;;;;;5051683;28;20252;-76
2024/01/18 08:19:58;;;;;;;0.30;0.30;;;;;;;;;;5046559;28;20239;-75
2024/01/18 08:22:24;;;;;;;0.30;0.30;;;;;;;;;;5051559;28;20476;-77
2024/01/18 08:24:52;;;;;;;0.27;0.27;;;;;;;;;;5046380;28;20239;-76
2024/01/18 08:27:19;;;;;;;0.30;0.30;;;;;;;;;;5051209;28;20495;-77
2024/01/18 08:29:45;;;;;;;0.30;0.30;;;;;;;;;;5046282;28;20472;-76
2024/01/18 08:32:11;;;;;;;0.30;0.30;;;;;;;;;;5051245;28;20313;-77
2024/01/18 08:34:38;;;;;;;0.30;0.30;;;;;;;;;;5045814;28;20416;-76
2024/01/18 08:37:05;;;;;;;0.23;0.23;;;;;;;;;;5050432;28;20241;-76
2024/01/18 08:39:31;;;;;;;0.30;0.30;;;;;;;;;;5046550;28;20398;-76
2024/01/18 08:41:59;;;;;;;0.30;0.30;;;;;;;;;;5049532;28;20242;-76
2024/01/18 08:44:26;;;;;;;0.37;0.37;;;;;;;;;;5047167;28;20208;-76
2024/01/18 08:46:53;;;;;;;0.27;0.27;;;;;;;;;;5048859;28;20248;-76
2024/01/18 08:49:24;;;;;;;0.33;0.33;;;;;;;;;;5047605;28;20236;-77
2024/01/18 08:51:51;;;;;;;0.30;0.30;;;;;;;;;;5048616;28;20447;-76
2024/01/18 08:54:17;;;;;;;0.30;0.30;;;;;;;;;;5047841;28;20208;-75
2024/01/18 08:56:43;;;;;;;0.30;0.30;;;;;;;;;;5047286;28;20300;-76
2024/01/18 08:59:11;;;;;;;0.30;0.30;;;;;;;;;;5048635;28;20202;-76
2024/01/18 09:01:38;;;;;;;0.30;0.30;;;;;;;;;;5046648;28;20249;-76
2024/01/18 09:04:04;;;;;;;0.30;0.30;;;;;;;;;;5049187;28;20207;-76
2024/01/18 09:06:32;;;;;;;0.30;0.30;;;;;;;;;;5045515;28;20307;-76
2024/01/18 09:08:59;;;;;;;0.30;0.30;;;;;;;;;;5050011;28;20236;-76
2024/01/18 09:11:25;;;;;;;0.30;0.30;;;;;;;;;;5045059;28;20262;-77
2024/01/18 09:13:52;;;;;;;0.30;0.30;;;;;;;;;;5050646;28;20279;-78
2024/01/18 09:16:19;;;;;;;0.30;0.30;;;;;;;;;;5043847;28;20271;-77
2024/01/18 09:18:46;;;;;;;0.30;0.30;;;;;;;;;;5051776;28;20292;-76
2024/01/18 09:21:12;;;;;;;0.30;0.30;;;;;;;;;;5044155;28;20245;-78
2024/01/18 09:23:39;;;;;;;0.30;0.30;;;;;;;;;;5054065;28;20242;-77
2024/01/18 09:26:05;;;;;;;0.30;0.30;;;;;;;;;;5042697;28;20242;-77
2024/01/18 09:28:32;;;;;;;0.30;0.30;;;;;;;;;;5053737;28;20232;-77
2024/01/18 09:30:58;;;;;;;0.30;0.30;;;;;;;;;;5042285;28;20246;-77
2024/01/18 09:33:26;;;;;;;0.20;0.20;;;;;;;;;;5055844;28;20211;-77
2024/01/18 09:35:52;;;;;;;0.30;0.30;;;;;;;;;;5041464;28;20239;-77
2024/01/18 09:38:19;;;;;;;0.30;0.30;;;;;;;;;;5056139;28;20231;-77
2024/01/18 09:40:45;;;;;;;0.30;0.30;;;;;;;;;;5041101;28;20245;-77
2024/01/18 09:43:13;;;;;;;0.30;0.30;;;;;;;;;;5056854;28;20221;-77
2024/01/18 09:45:43;;;;;;;0.30;0.30;;;;;;;;;;5040641;28;20261;-78
2024/01/18 09:48:10;;;;;;;0.30;0.30;;;;;;;;;;5057529;28;20240;-78
2024/01/18 09:50:43;;;;;;;0.30;0.30;;;;;;;;;;5039660;28;20289;-77
2024/01/18 09:53:09;;;;;;;3.80;3.53;;;;;;;;;;5057139;28;20194;-78
2024/01/18 09:55:35;;;;;;;0.30;0.30;;;;;;;;;;5038643;28;20648;-76
2024/01/18 09:58:03;;;;;;;0.20;0.20;;;;;;;;;;5056864;28;20195;-76
2024/01/18 10:00:31;;;;;;;0.30;0.30;;;;;;;;;;5036726;28;20484;-75
2024/01/18 10:02:58;;;;;;;0.30;0.30;;;;;;;;;;5057062;28;20379;-75
2024/01/18 10:05:26;;;;;;;0.30;0.30;;;;;;;;;;5035929;28;20248;-75
2024/01/18 10:07:54;;;;;;;0.30;0.30;;;;;;;;;;5057068;28;20484;-78
2024/01/18 10:10:22;;;;;;;0.30;0.30;;;;;;;;;;5035942;28;20458;-79
2024/01/18 10:12:49;;;;;;;0.20;0.20;;;;;;;;;;5057678;28;20227;-79
2024/01/18 10:15:29;;;;;;;0.20;0.20;;;;;;;;;;5034733;28;20211;-78
2024/01/18 10:17:55;;;;;;;0.20;0.20;;;;;;;;;;5056590;28;20233;-76
2024/01/18 10:20:23;;;;;;;0.30;0.30;;;;;;;;;;5036018;28;20387;-76
2024/01/18 10:22:50;;;;;;;0.30;0.30;;;;;;;;;;5057242;28;20196;-75
2024/01/18 10:25:18;;;;;;;0.20;0.20;;;;;;;;;;5035096;28;20204;-73
2024/01/18 10:27:44;;;;;;;0.57;0.57;;;;;;;;;;5057926;28;20288;-74
2024/01/18 10:30:12;;;;;;;0.20;0.20;;;;;;;;;;5034433;28;20273;-74
2024/01/18 10:32:39;;;;;;;0.40;0.40;;;;;;;;;;5058769;28;20277;-73
2024/01/18 10:35:07;;;;;;;0.30;0.30;;;;;;;;;;5043933;28;20271;-73
2024/01/18 10:37:35;;;;;;;0.30;0.30;;;;;;;;;;5031999;28;20558;-74
2024/01/18 10:40:05;;;;;;;0.23;0.23;;;;;;;;;;5043234;28;20491;-74
2024/01/18 10:42:33;;;;;;;0.30;0.30;;;;;;;;;;5049046;28;20255;-74
2024/01/18 10:45:01;;;;;;;0.30;0.30;;;;;;;;;;5043881;28;20217;-74
2024/01/18 10:47:31;;;;;;;0.20;0.20;;;;;;;;;;5048782;28;20241;-79
2024/01/18 10:49:59;;;;;;;0.20;0.20;;;;;;;;;;5043796;28;20207;-74
2024/01/18 10:52:26;;;;;;;0.30;0.30;;;;;;;;;;5048800;28;20313;-74
2024/01/18 10:54:54;;;;;;;0.20;0.20;;;;;;;;;;5043844;28;20371;-73
2024/01/18 10:57:20;;;;;;;0.20;0.20;;;;;;;;;;5048832;28;20310;-75
2024/01/18 10:59:48;;;;;;;0.20;0.20;;;;;;;;;;5043764;28;20214;-75
2024/01/18 11:02:15;;;;;;;0.20;0.20;;;;;;;;;;5048745;28;20243;-74
2024/01/18 11:04:44;;;;;;;0.20;0.20;;;;;;;;;;5043403;28;20231;-74
2024/01/18 11:07:11;;;;;;;0.27;0.27;;;;;;;;;;5048691;28;20465;-74
2024/01/18 11:09:38;;;;;;;0.30;0.30;;;;;;;;;;5043237;28;20269;-74
2024/01/18 11:12:06;;;;;;;0.30;0.30;;;;;;;;;;5048145;28;20293;-75
2024/01/18 11:14:32;;;;;;;0.20;0.20;;;;;;;;;;5043581;28;20206;-74
2024/01/18 11:17:06;;;;;;;0.20;0.20;;;;;;;;;;5047200;28;20242;-74
2024/01/18 11:19:43;;;;;;;0.30;0.30;;;;;;;;;;5043803;28;20231;-74
2024/01/18 11:22:11;;;;;;;0.30;0.30;;;;;;;;;;5048489;28;20309;-75
2024/01/18 11:24:37;;;;;;;0.20;0.20;;;;;;;;;;5043481;28;20386;-74
2024/01/18 11:27:16;;;;;;;0.23;0.23;;;;;;;;;;5047679;28;20247;-74
2024/01/18 11:29:43;;;;;;;0.20;0.20;;;;;;;;;;5043117;28;20214;-75
2024/01/18 11:32:13;;;;;;;0.30;0.30;;;;;;;;;;5048553;28;20548;-74
2024/01/18 11:34:40;;;;;;;0.30;0.30;;;;;;;;;;5043101;28;20208;-74
2024/01/18 11:37:10;;;;;;;5.50;5.20;;;;;;;;;;5047885;28;20505;-74
2024/01/18 11:39:56;;;;;;;0.30;0.30;;;;;;;;;;5043388;28;20207;-80
2024/01/18 11:42:24;;;;;;;0.30;0.30;;;;;;;;;;5051528;28;20243;-79
2024/01/18 11:44:56;;;;;;;0.20;0.20;;;;;;;;;;5046018;28;20210;-79
2024/01/18 11:47:24;;;;;;;0.30;0.30;;;;;;;;;;5051043;28;20248;-80
2024/01/18 11:49:54;;;;;;;0.30;0.30;;;;;;;;;;5046791;28;20252;-79
2024/01/18 11:52:22;;;;;;;0.30;0.30;;;;;;;;;;5054869;28;20269;-78
2024/01/18 11:54:51;;;;;;;0.20;0.20;;;;;;;;;;5048988;28;20243;-79
2024/01/18 11:57:18;;;;;;;0.20;0.20;;;;;;;;;;5052081;28;20260;-78
2024/01/18 11:59:45;;;;;;;0.20;0.20;;;;;;;;;;5046816;28;20434;-79
2024/01/18 12:02:12;;;;;;;0.30;0.30;;;;;;;;;;5051355;28;20440;-80
2024/01/18 12:04:41;;;;;;;0.30;0.30;;;;;;;;;;5046557;28;20211;-80
2024/01/18 12:07:10;;;;;;;0.30;0.30;;;;;;;;;;5051309;28;20263;-81
2024/01/18 12:09:36;;;;;;;0.20;0.20;;;;;;;;;;5046362;28;20227;-79
2024/01/18 12:12:04;;;;;;;0.20;0.20;;;;;;;;;;5050982;28;20301;-80
2024/01/18 12:14:31;;;;;;;0.23;0.23;;;;;;;;;;5047082;28;20274;-79
2024/01/18 12:16:57;;;;;;;0.30;0.30;;;;;;;;;;5050306;28;20249;-80
2024/01/18 12:19:31;;;;;;;0.30;0.30;;;;;;;;;;5047625;28;20202;-79
2024/01/18 12:22:01;;;;;;;0.33;0.33;;;;;;;;;;5050403;28;20348;-80
2024/01/18 12:24:27;;;;;;;0.20;0.20;;;;;;;;;;5047299;28;20234;-80
2024/01/18 12:26:54;;;;;;;0.30;0.30;;;;;;;;;;5049767;28;20255;-78
2024/01/18 12:29:22;;;;;;;0.27;0.27;;;;;;;;;;5047444;28;20292;-80
2024/01/18 12:31:48;;;;;;;0.20;0.20;;;;;;;;;;5048503;28;20264;-77
2024/01/18 12:34:17;;;;;;;0.80;0.80;;;;;;;;;;5048267;28;20208;-77
2024/01/18 12:36:44;;;;;;;0.30;0.30;;;;;;;;;;5047953;28;20259;-77
2024/01/18 12:39:12;;;;;;;0.20;0.20;;;;;;;;;;5048781;28;20203;-76
2024/01/18 12:41:39;;;;;;;0.20;0.20;;;;;;;;;;5047206;28;20302;-77
2024/01/18 12:44:06;;;;;;;0.20;0.20;;;;;;;;;;5049152;28;20201;-76
2024/01/18 12:46:32;;;;;;;0.27;0.27;;;;;;;;;;5046438;28;20250;-79
2024/01/18 12:48:59;;;;;;;0.30;0.30;;;;;;;;;;5049961;28;20225;-79
2024/01/18 12:51:25;;;;;;;0.20;0.20;;;;;;;;;;5045376;28;20245;-79
2024/01/18 12:53:52;;;;;;;0.30;0.30;;;;;;;;;;5050837;28;20209;-80
2024/01/18 12:56:19;;;;;;;0.20;0.20;;;;;;;;;;5044617;28;20448;-77
2024/01/18 12:58:46;;;;;;;0.80;0.80;;;;;;;;;;5051647;28;20204;-79
2024/01/18 13:01:24;;;;;;;0.23;0.23;;;;;;;;;;5042953;28;20262;-79
2024/01/18 13:03:51;;;;;;;0.30;0.30;;;;;;;;;;5051201;28;20227;-80
2024/01/18 13:06:18;;;;;;;0.20;0.20;;;;;;;;;;5043945;28;20265;-79
2024/01/18 13:08:44;;;;;;;0.20;0.20;;;;;;;;;;5051314;28;20321;-79
2024/01/18 13:11:11;;;;;;;0.30;0.30;;;;;;;;;;5043154;28;20313;-80
2024/01/18 13:13:39;;;;;;;0.30;0.30;;;;;;;;;;5052304;28;20369;-78
2024/01/18 13:16:05;;;;;;;0.30;0.30;;;;;;;;;;5042505;28;20267;-78
2024/01/18 13:18:32;;;;;;;0.30;0.30;;;;;;;;;;5052736;28;20199;-78
2024/01/18 13:20:58;;;;;;;0.20;0.20;;;;;;;;;;5041264;28;20243;-78
2024/01/18 13:23:25;;;;;;;0.20;0.20;;;;;;;;;;5053672;28;20282;-80
2024/01/18 13:25:51;;;;;;;0.20;0.20;;;;;;;;;;5040256;28;20561;-78
2024/01/18 13:28:18;;;;;;;0.20;0.20;;;;;;;;;;5054493;28;20242;-78
2024/01/18 13:30:45;;;;;;;0.30;0.30;;;;;;;;;;5039342;28;20307;-78
2024/01/18 13:33:12;;;;;;;0.30;0.30;;;;;;;;;;5055734;28;20199;-78
2024/01/18 13:35:57;;;;;;;0.20;0.20;;;;;;;;;;5037391;28;20266;-79
2024/01/18 13:53:41;;;;;;;0.30;0.30;;;;;;;;;;4988134;28;20881;-79
2024/01/18 13:56:07;;;;;;;0.30;0.30;;;;;;;;;;5012271;28;20252;-79
2024/01/18 13:58:34;;;;;;;0.40;0.40;;;;;;;;;;5022018;28;20226;-79
2024/01/18 14:01:00;;;;;;;0.27;0.27;;;;;;;;;;5012355;28;20290;-79
2024/01/18 14:03:27;;;;;;;0.30;0.30;;;;;;;;;;4968892;28;20351;-78
2024/01/18 14:05:54;;;;;;;0.30;0.30;;;;;;;;;;4959856;28;20252;-78
2024/01/18 14:08:20;;;;;;;0.30;0.30;;;;;;;;;;4973483;28;20238;-78
2024/01/18 14:10:51;;;;;;;0.30;0.30;;;;;;;;;;4959003;28;20248;-79
2024/01/18 14:13:19;;;;;;;0.30;0.30;;;;;;;;;;4967761;28;20428;-78
2024/01/18 14:15:50;;;;;;;0.30;0.30;;;;;;;;;;4953978;28;20254;-79
2024/01/18 14:18:20;;;;;;;0.27;0.27;;;;;;;;;;4963588;29;20421;-79
2024/01/18 14:20:46;;;;;;;2.87;2.67;;;;;;;;;;4996996;28;20242;-77
2024/01/18 14:23:13;;;;;;;0.20;0.20;;;;;;;;;;5054509;28;20278;-79
2024/01/18 14:25:39;;;;;;;0.30;0.30;;;;;;;;;;5037626;28;20321;-79
2024/01/18 14:28:07;;;;;;;0.30;0.30;;;;;;;;;;5055247;28;20270;-79
2024/01/18 14:30:34;;;;;;;0.30;0.30;;;;;;;;;;5036634;28;20247;-79
2024/01/18 14:33:00;;;;;;;0.30;0.30;;;;;;;;;;5055968;28;20264;-78
2024/01/18 14:35:27;;;;;;;1.30;1.30;;;;;;;;;;5036104;28;20221;-79
2024/01/18 14:37:53;;;;;;;0.30;0.30;;;;;;;;;;5056744;28;20225;-79
2024/01/18 14:40:20;;;;;;;0.30;0.30;;;;;;;;;;5035079;28;20279;-77
2024/01/18 14:42:46;;;;;;;0.30;0.30;;;;;;;;;;5057540;28;20236;-79
2024/01/18 14:45:14;;;;;;;0.87;0.83;;;;;;;;;;5034040;28;20244;-79
2024/01/18 14:47:40;;;;;;;0.30;0.30;;;;;;;;;;5058279;28;20250;-79
2024/01/18 14:50:07;;;;;;;0.30;0.30;;;;;;;;;;5043288;28;20287;-78
2024/01/18 14:52:34;;;;;;;0.90;0.90;;;;;;;;;;5031975;28;20210;-79
2024/01/18 14:55:00;;;;;;;0.27;0.27;;;;;;;;;;5043704;28;20392;-79
2024/01/18 14:57:27;;;;;;;0.30;0.30;;;;;;;;;;5048935;28;20457;-79